sensor_id;sensor_type;location;lat;lon;timestamp;pressure;altitude;pressure_sealevel;temperature;humidity
7662;BME280;30314;48.184;11.510;2023-05-16T00:00:51;95552.66;;;9.82;100.00
7662;BME280;30314;48.184;11.510;2023-05-16T00:03:21;95552.66;;;9.82;100.00
7662;BME280;30314;48.184;11.510;2023-05-16T00:05:48;95550.50;;;9.84;100.00
7662;BME280;30314;48.184;11.510;2023-05-16T00:08:15;95545.03;;;9.81;100.00
7662;BME280;30314;48.184;11.510;2023-05-16T00:10:43;95538.00;;;9.76;100.00
7662;BME280;30314;48.184;11.510;2023-05-16T00:13:10;95546.66;;;9.77;100.00
7662;BME280;30314;48.184;11.510;2023-05-16T00:15:37;95545.09;;;9.76;100.00
7662;BME280;30314;48.184;11.510;2023-05-16T00:18:04;95545.59;;;9.78;100.00
7662;BME280;30314;48.184;11.510;2023-05-16T00:20:31;95546.38;;;9.78;100.00
7662;BME280;30314;48.184;11.510;2023-05-16T00:22:57;95541.13;;;9.78;100.00
7662;BME280;30314;48.184;11.510;2023-05-16T00:25:26;95538.00;;;9.76;100.00
7662;BME280;30314;48.184;11.510;2023-05-16T00:27:53;95540.63;;;9.76;100.00
7662;BME280;30314;48.184;11.510;2023-05-16T00:30:20;95533.78;;;9.75;100.00
7662;BME280;30314;48.184;11.510;2023-05-16T00:32:50;95535.41;;;9.71;100.00
7662;BME280;30314;48.184;11.510;2023-05-16T00:35:17;95528.09;;;9.68;100.00
7662;BME280;30314;48.184;11.510;2023-05-16T00:37:43;95526.44;;;9.72;100.00
7662;BME280;30314;48.184;11.510;2023-05-16T00:40:10;95528.09;;;9.68;100.00
7662;BME280;30314;48.184;11.510;2023-05-16T00:42:37;95526.50;;;9.67;100.00
7662;BME280;30314;48.184;11.510;2023-05-16T00:45:05;95528.09;;;9.68;100.00
7662;BME280;30314;48.184;11.510;2023-05-16T00:47:32;95523.88;;;9.67;100.00
7662;BME280;30314;48.184;11.510;2023-05-16T00:49:59;95530.22;;;9.66;100.00
7662;BME280;30314;48.184;11.510;2023-05-16T00:52:26;95522.59;;;9.64;100.00
7662;BME280;30314;48.184;11.510;2023-05-16T00:54:53;95532.06;;;9.65;100.00
7662;BME280;30314;48.184;11.510;2023-05-16T00:57:21;95522.97;;;9.57;100.00
7662;BME280;30314;48.184;11.510;2023-05-16T00:59:48;95529.66;;;9.69;100.00
7662;BME280;30314;48.184;11.510;2023-05-16T01:02:16;95526.59;;;9.62;100.00
7662;BME280;30314;48.184;11.510;2023-05-16T01:04:44;95540.66;;;9.57;100.00
7662;BME280;30314;48.184;11.510;2023-05-16T01:07:11;95535.59;;;9.61;100.00
7662;BME280;30314;48.184;11.510;2023-05-16T01:09:37;95532.66;;;9.62;100.00
7662;BME280;30314;48.184;11.510;2023-05-16T01:15:03;95538.78;;;9.57;100.00
7662;BME280;30314;48.184;11.510;2023-05-16T01:17:59;95537.16;;;9.62;100.00
7662;BME280;30314;48.184;11.510;2023-05-16T01:20:45;95534.28;;;9.58;100.00
7662;BME280;30314;48.184;11.510;2023-05-16T01:23:38;95528.44;;;9.61;100.00
7662;BME280;30314;48.184;11.510;2023-05-16T01:26:22;95522.91;;;9.63;100.00
7662;BME280;30314;48.184;11.510;2023-05-16T01:28:51;95521.13;;;9.58;100.00
7662;BME280;30314;48.184;11.510;2023-05-16T01:31:21;95518.97;;;9.60;100.00
7662;BME280;30314;48.184;11.510;2023-05-16T01:34:02;95518.75;;;9.56;100.00
7662;BME280;30314;48.184;11.510;2023-05-16T01:36:55;95505.88;;;9.55;100.00
7662;BME280;30314;48.184;11.510;2023-05-16T01:39:29;95519.59;;;9.52;100.00
7662;BME280;30314;48.184;11.510;2023-05-16T01:42:06;95512.78;;;9.51;100.00
7662;BME280;30314;48.184;11.510;2023-05-16T01:44:47;95504.88;;;9.51;100.00
7662;BME280;30314;48.184;11.510;2023-05-16T01:47:16;95505.66;;;9.51;100.00
7662;BME280;30314;48.184;11.510;2023-05-16T01:49:56;95507.88;;;9.44;100.00
7662;BME280;30314;48.184;11.510;2023-05-16T01:52:31;95507.38;;;9.42;100.00
7662;BME280;30314;48.184;11.510;2023-05-16T01:55:01;95508.16;;;9.42;100.00
7662;BME280;30314;48.184;11.510;2023-05-16T01:57:29;95507.38;;;9.42;100.00
7662;BME280;30314;48.184;11.510;2023-05-16T01:59:57;95509.50;;;9.40;100.00
7662;BME280;30314;48.184;11.510;2023-05-16T02:02:24;95506.47;;;9.33;100.00
7662;BME280;30314;48.184;11.510;2023-05-16T02:04:50;95508.31;;;9.32;100.00
7662;BME280;30314;48.184;11.510;2023-05-16T02:07:17;95503.25;;;9.36;100.00
7662;BME280;30314;48.184;11.510;2023-05-16T02:09:44;95500.69;;;9.30;100.00
7662;BME280;30314;48.184;11.510;2023-05-16T02:12:10;95506.38;;;9.38;100.00
7662;BME280;30314;48.184;11.510;2023-05-16T02:14:37;95506.97;;;9.35;100.00
7662;BME280;30314;48.184;11.510;2023-05-16T02:17:05;95508.88;;;9.29;100.00
7662;BME280;30314;48.184;11.510;2023-05-16T02:19:31;95506.53;;;9.27;100.00
7662;BME280;30314;48.184;11.510;2023-05-16T02:21:59;95504.69;;;9.28;100.00
7662;BME280;30314;48.184;11.510;2023-05-16T02:24:25;95510.72;;;9.28;100.00
7662;BME280;30314;48.184;11.510;2023-05-16T02:26:54;95508.66;;;9.25;100.00
7662;BME280;30314;48.184;11.510;2023-05-16T02:29:20;95510.56;;;9.20;100.00
7662;BME280;30314;48.184;11.510;2023-05-16T02:31:47;95507.31;;;9.28;100.00
7662;BME280;30314;48.184;11.510;2023-05-16T02:34:13;95509.44;;;9.26;100.00
7662;BME280;30314;48.184;11.510;2023-05-16T02:36:41;95514.22;;;9.24;100.00
7662;BME280;30314;48.184;11.510;2023-05-16T02:39:08;95511.03;;;9.27;100.00
7662;BME280;30314;48.184;11.510;2023-05-16T02:41:36;95513.19;;;9.20;100.00
7662;BME280;30314;48.184;11.510;2023-05-16T02:44:02;95511.13;;;9.16;100.00
7662;BME280;30314;48.184;11.510;2023-05-16T02:46:32;95509.28;;;9.17;100.00
7662;BME280;30314;48.184;11.510;2023-05-16T02:48:59;95514.03;;;9.15;100.00
7662;BME280;30314;48.184;11.510;2023-05-16T02:51:26;95511.91;;;9.17;100.00
7662;BME280;30314;48.184;11.510;2023-05-16T02:53:54;95510.13;;;9.12;100.00
7662;BME280;30314;48.184;11.510;2023-05-16T02:56:25;95512.56;;;9.09;100.00
7662;BME280;30314;48.184;11.510;2023-05-16T02:58:53;95510.19;;;9.07;100.00
7662;BME280;30314;48.184;11.510;2023-05-16T03:01:20;95512.84;;;9.07;100.00
7662;BME280;30314;48.184;11.510;2023-05-16T03:03:47;95515.31;;;8.98;100.00
7662;BME280;30314;48.184;11.510;2023-05-16T03:06:14;95514.25;;;8.99;100.00
7662;BME280;30314;48.184;11.510;2023-05-16T03:08:40;95509.44;;;9.07;100.00
7662;BME280;30314;48.184;11.510;2023-05-16T03:11:07;95509.94;;;9.09;100.00
7662;BME280;30314;48.184;11.510;2023-05-16T03:13:33;95514.69;;;9.07;100.00
7662;BME280;30314;48.184;11.510;2023-05-16T03:16:00;95509.47;;;9.01;100.00
7662;BME280;30314;48.184;11.510;2023-05-16T03:18:27;95497.38;;;9.00;100.00
7662;BME280;30314;48.184;11.510;2023-05-16T03:20:54;95514.69;;;9.07;100.00
7662;BME280;30314;48.184;11.510;2023-05-16T03:23:22;95503.38;;;9.06;100.00
7662;BME280;30314;48.184;11.510;2023-05-16T03:25:48;95507.84;;;9.06;100.00
7662;BME280;30314;48.184;11.510;2023-05-16T03:28:19;95509.47;;;9.01;100.00
7662;BME280;30314;48.184;11.510;2023-05-16T03:30:46;95514.13;;;9.10;100.00
7662;BME280;30314;48.184;11.510;2023-05-16T03:33:12;95506.22;;;9.10;100.00
7662;BME280;30314;48.184;11.510;2023-05-16T03:35:39;95506.00;;;9.06;100.00
7662;BME280;30314;48.184;11.510;2023-05-16T03:38:06;95509.94;;;9.09;100.00
7662;BME280;30314;48.184;11.510;2023-05-16T03:40:32;95504.16;;;9.07;100.00
7662;BME280;30314;48.184;11.510;2023-05-16T03:42:59;95509.34;;;9.12;100.00
7662;BME280;30314;48.184;11.510;2023-05-16T03:45:26;95509.34;;;9.12;100.00
7662;BME280;30314;48.184;11.510;2023-05-16T03:47:53;95504.31;;;9.15;100.00
7662;BME280;30314;48.184;11.510;2023-05-16T03:50:19;95504.66;;;9.09;100.00
7662;BME280;30314;48.184;11.510;2023-05-16T03:52:46;95501.22;;;9.08;100.00
7662;BME280;30314;48.184;11.510;2023-05-16T03:55:12;95504.56;;;9.14;100.00
7662;BME280;30314;48.184;11.510;2023-05-16T03:57:41;95499.16;;;9.05;100.00
7662;BME280;30314;48.184;11.510;2023-05-16T04:00:09;95491.25;;;9.05;100.00
7662;BME280;30314;48.184;11.510;2023-05-16T04:02:39;95502.56;;;9.06;100.00
7662;BME280;30314;48.184;11.510;2023-05-16T04:05:07;95502.56;;;9.06;100.00
7662;BME280;30314;48.184;11.510;2023-05-16T04:07:34;95505.19;;;9.06;100.00
7662;BME280;30314;48.184;11.510;2023-05-16T04:10:01;95517.81;;;9.09;100.00
7662;BME280;30314;48.184;11.510;2023-05-16T04:12:28;95511.75;;;9.08;100.00
7662;BME280;30314;48.184;11.510;2023-05-16T04:14:54;95502.06;;;9.03;100.00
7662;BME280;30314;48.184;11.510;2023-05-16T04:17:21;95507.16;;;9.00;100.00
7662;BME280;30314;48.184;11.510;2023-05-16T04:19:47;95504.44;;;9.05;100.00
7662;BME280;30314;48.184;11.510;2023-05-16T04:22:14;95499.94;;;9.06;100.00
7662;BME280;30314;48.184;11.510;2023-05-16T04:24:41;95505.66;;;9.13;100.00
7662;BME280;30314;48.184;11.510;2023-05-16T04:27:07;95503.50;;;9.15;100.00
7662;BME280;30314;48.184;11.510;2023-05-16T04:29:35;95503.28;;;9.11;100.00
7662;BME280;30314;48.184;11.510;2023-05-16T04:32:01;95510.50;;;9.25;100.00
7662;BME280;30314;48.184;11.510;2023-05-16T04:34:29;95511.13;;;9.16;100.00
7662;BME280;30314;48.184;11.510;2023-05-16T04:36:56;95504.66;;;9.09;100.00
7662;BME280;30314;48.184;11.510;2023-05-16T04:39:23;95506.13;;;9.15;100.00
7662;BME280;30314;48.184;11.510;2023-05-16T04:41:50;95509.34;;;9.12;100.00
7662;BME280;30314;48.184;11.510;2023-05-16T04:44:16;95517.88;;;9.03;100.00
7662;BME280;30314;48.184;11.510;2023-05-16T04:46:43;95521.53;;;9.08;100.00
7662;BME280;30314;48.184;11.510;2023-05-16T04:49:09;95517.25;;;9.12;100.00
7662;BME280;30314;48.184;11.510;2023-05-16T04:51:36;95515.38;;;9.12;100.00
7662;BME280;30314;48.184;11.510;2023-05-16T04:54:03;95515.81;;;9.20;100.00
7662;BME280;30314;48.184;11.510;2023-05-16T04:56:29;95517.97;;;9.18;100.00
7662;BME280;30314;48.184;11.510;2023-05-16T04:58:56;95518.47;;;9.20;100.00
7662;BME280;30314;48.184;11.510;2023-05-16T05:01:22;95517.16;;;9.22;100.00
7662;BME280;30314;48.184;11.510;2023-05-16T05:03:49;95526.31;;;9.25;100.00
7662;BME280;30314;48.184;11.510;2023-05-16T05:06:15;95519.47;;;9.24;100.00
7662;BME280;30314;48.184;11.510;2023-05-16T05:08:42;95518.97;;;9.41;100.00
7662;BME280;30314;48.184;11.510;2023-05-16T05:11:09;95515.78;;;9.44;100.00
7662;BME280;30314;48.184;11.510;2023-05-16T05:13:35;95520.31;;;9.57;100.00
7662;BME280;30314;48.184;11.510;2023-05-16T05:16:02;95520.19;;;9.49;100.00
7662;BME280;30314;48.184;11.510;2023-05-16T05:18:30;95527.75;;;9.55;100.00
7662;BME280;30314;48.184;11.510;2023-05-16T05:20:57;95529.50;;;9.60;100.00
7662;BME280;30314;48.184;11.510;2023-05-16T05:23:24;95522.19;;;9.57;100.00
7662;BME280;30314;48.184;11.510;2023-05-16T05:25:51;95527.25;;;9.53;100.00
7662;BME280;30314;48.184;11.510;2023-05-16T05:28:17;95521.81;;;9.64;100.00
7662;BME280;30314;48.184;11.510;2023-05-16T05:30:44;95524.53;;;9.58;100.00
7662;BME280;30314;48.184;11.510;2023-05-16T05:33:16;95527.00;;;9.69;100.00
7662;BME280;30314;48.184;11.510;2023-05-16T05:35:44;95523.66;;;9.63;100.00
7662;BME280;30314;48.184;11.510;2023-05-16T05:38:10;95522.97;;;9.57;100.00
7662;BME280;30314;48.184;11.510;2023-05-16T05:40:37;95521.13;;;9.58;100.00
7662;BME280;30314;48.184;11.510;2023-05-16T05:43:03;95521.97;;;9.53;100.00
7662;BME280;30314;48.184;11.510;2023-05-16T05:45:30;95515.41;;;9.51;100.00
7662;BME280;30314;48.184;11.510;2023-05-16T05:47:56;95510.47;;;9.63;100.00
7662;BME280;30314;48.184;11.510;2023-05-16T05:50:23;95519.91;;;9.50;100.00
7662;BME280;30314;48.184;11.510;2023-05-16T05:52:50;95516.22;;;9.51;100.00
7662;BME280;30314;48.184;11.510;2023-05-16T05:55:16;95517.53;;;9.68;100.00
7662;BME280;30314;48.184;11.510;2023-05-16T05:57:43;95520.91;;;9.54;100.00
7662;BME280;30314;48.184;11.510;2023-05-16T06:00:10;95509.38;;;9.50;100.00
7662;BME280;30314;48.184;11.510;2023-05-16T06:02:37;95517.41;;;9.59;100.00
7662;BME280;30314;48.184;11.510;2023-05-16T06:05:04;95518.34;;;9.49;100.00
7662;BME280;30314;48.184;11.510;2023-05-16T06:07:31;95516.22;;;9.51;100.00
7662;BME280;30314;48.184;11.510;2023-05-16T06:09:57;95520.31;;;9.57;100.00
7662;BME280;30314;48.184;11.510;2023-05-16T06:12:24;95512.84;;;9.65;100.00
7662;BME280;30314;48.184;11.510;2023-05-16T06:14:51;95508.06;;;9.67;100.00
7662;BME280;30314;48.184;11.510;2023-05-16T06:17:17;95509.22;;;9.61;100.00
7662;BME280;30314;48.184;11.510;2023-05-16T06:19:44;95510.78;;;9.62;100.00
7662;BME280;30314;48.184;11.510;2023-05-16T06:22:11;95502.69;;;9.72;100.00
7662;BME280;30314;48.184;11.510;2023-05-16T06:24:37;95511.88;;;9.75;100.00
7662;BME280;30314;48.184;11.510;2023-05-16T06:27:04;95514.47;;;9.80;100.00
7662;BME280;30314;48.184;11.510;2023-05-16T06:29:31;95513.94;;;9.78;100.00
7662;BME280;30314;48.184;11.510;2023-05-16T06:31:57;95508.88;;;9.81;100.00
7662;BME280;30314;48.184;11.510;2023-05-16T06:34:24;95509.22;;;9.94;100.00
7662;BME280;30314;48.184;11.510;2023-05-16T06:36:54;95516.75;;;10.00;100.00
7662;BME280;30314;48.184;11.510;2023-05-16T06:39:20;95514.53;;;10.08;100.00
7662;BME280;30314;48.184;11.510;2023-05-16T06:41:47;95513.94;;;10.11;100.00
7662;BME280;30314;48.184;11.510;2023-05-16T06:44:14;95514.44;;;10.13;100.00
7662;BME280;30314;48.184;11.510;2023-05-16T06:46:41;95520.63;;;10.22;100.00
7662;BME280;30314;48.184;11.510;2023-05-16T06:49:08;95522.66;;;10.25;100.00
7662;BME280;30314;48.184;11.510;2023-05-16T06:51:34;95518.25;;;10.21;100.00
7662;BME280;30314;48.184;11.510;2023-05-16T06:54:01;95517.19;;;10.50;100.00
7662;BME280;30314;48.184;11.510;2023-05-16T06:56:29;95518.78;;;10.37;100.00
7662;BME280;30314;48.184;11.510;2023-05-16T06:58:56;95524.91;;;10.32;100.00
7662;BME280;30314;48.184;11.510;2023-05-16T07:01:23;95524.72;;;10.28;100.00
7662;BME280;30314;48.184;11.510;2023-05-16T07:03:50;95528.75;;;10.26;100.00
7662;BME280;30314;48.184;11.510;2023-05-16T07:06:17;95521.09;;;10.24;100.00
7662;BME280;30314;48.184;11.510;2023-05-16T07:08:43;95513.47;;;10.23;100.00
7662;BME280;30314;48.184;11.510;2023-05-16T07:11:10;95515.03;;;10.24;100.00
7662;BME280;30314;48.184;11.510;2023-05-16T07:13:37;95509.75;;;10.24;100.00
7662;BME280;30314;48.184;11.510;2023-05-16T07:16:03;95517.00;;;10.32;100.00
7662;BME280;30314;48.184;11.510;2023-05-16T07:18:30;95517.97;;;10.36;100.00
7662;BME280;30314;48.184;11.510;2023-05-16T07:20:57;95518.47;;;10.38;100.00
7662;BME280;30314;48.184;11.510;2023-05-16T07:23:23;95513.97;;;10.39;100.00
7662;BME280;30314;48.184;11.510;2023-05-16T07:25:50;95521.19;;;10.33;100.00
7662;BME280;30314;48.184;11.510;2023-05-16T07:28:18;95518.78;;;10.37;100.00
7662;BME280;30314;48.184;11.510;2023-05-16T07:30:45;95520.06;;;10.39;100.00
7662;BME280;30314;48.184;11.510;2023-05-16T07:33:12;95514.66;;;10.45;100.00
7662;BME280;30314;48.184;11.510;2023-05-16T07:35:39;95522.09;;;10.42;100.00
7662;BME280;30314;48.184;11.510;2023-05-16T07:38:06;95520.53;;;10.41;100.00
7662;BME280;30314;48.184;11.510;2023-05-16T07:40:32;95517.50;;;10.34;100.00
7662;BME280;30314;48.184;11.510;2023-05-16T07:42:59;95520.34;;;10.38;100.00
7662;BME280;30314;48.184;11.510;2023-05-16T07:45:28;95534.03;;;10.40;100.00
7662;BME280;30314;48.184;11.510;2023-05-16T07:47:55;95531.09;;;10.41;100.00
7662;BME280;30314;48.184;11.510;2023-05-16T07:50:22;95532.47;;;10.39;100.00
7662;BME280;30314;48.184;11.510;2023-05-16T07:52:49;95537.72;;;10.39;100.00
7662;BME280;30314;48.184;11.510;2023-05-16T07:55:16;95543.59;;;10.36;100.00
7662;BME280;30314;48.184;11.510;2023-05-16T07:57:42;95544.69;;;10.35;100.00
7662;BME280;30314;48.184;11.510;2023-05-16T08:00:09;95543.59;;;10.36;100.00
7662;BME280;30314;48.184;11.510;2023-05-16T08:02:39;95550.13;;;10.38;100.00
7662;BME280;30314;48.184;11.510;2023-05-16T08:05:07;95556.50;;;10.37;100.00
7662;BME280;30314;48.184;11.510;2023-05-16T08:07:34;95550.44;;;10.37;100.00
7662;BME280;30314;48.184;11.510;2023-05-16T08:10:00;95553.28;;;10.40;100.00
7662;BME280;30314;48.184;11.510;2023-05-16T08:12:27;95549.16;;;10.34;100.00
7662;BME280;30314;48.184;11.510;2023-05-16T08:14:54;95549.16;;;10.34;100.00
7662;BME280;30314;48.184;11.510;2023-05-16T08:17:20;95560.03;;;10.33;100.00
7662;BME280;30314;48.184;11.510;2023-05-16T08:19:47;95553.75;;;10.28;100.00
7662;BME280;30314;48.184;11.510;2023-05-16T08:22:13;95562.75;;;10.27;100.00
7662;BME280;30314;48.184;11.510;2023-05-16T08:24:40;95562.47;;;10.29;100.00
7662;BME280;30314;48.184;11.510;2023-05-16T08:27:06;95558.84;;;10.39;100.00
7662;BME280;30314;48.184;11.510;2023-05-16T08:29:34;95556.09;;;10.30;100.00
7662;BME280;30314;48.184;11.510;2023-05-16T08:32:00;95559.34;;;10.27;100.00
7662;BME280;30314;48.184;11.510;2023-05-16T08:34:29;95567.25;;;10.27;100.00
7662;BME280;30314;48.184;11.510;2023-05-16T08:36:57;95566.25;;;10.23;100.00
7662;BME280;30314;48.184;11.510;2023-05-16T08:39:23;95558.81;;;10.25;100.00
7662;BME280;30314;48.184;11.510;2023-05-16T08:41:50;95558.25;;;10.28;100.00
7662;BME280;30314;48.184;11.510;2023-05-16T08:44:16;95560.41;;;10.26;100.00
7662;BME280;30314;48.184;11.510;2023-05-16T08:46:51;95557.09;;;10.34;100.00
7662;BME280;30314;48.184;11.510;2023-05-16T08:49:19;95554.94;;;10.36;100.00
7662;BME280;30314;48.184;11.510;2023-05-16T08:51:47;95556.09;;;10.30;100.00
7662;BME280;30314;48.184;11.510;2023-05-16T08:54:15;95556.09;;;10.30;100.00
7662;BME280;30314;48.184;11.510;2023-05-16T08:56:43;95558.66;;;10.35;100.00
7662;BME280;30314;48.184;11.510;2023-05-16T08:59:11;95561.38;;;10.44;100.00
7662;BME280;30314;48.184;11.510;2023-05-16T09:01:39;95562.28;;;10.39;100.00
7662;BME280;30314;48.184;11.510;2023-05-16T09:04:08;95555.25;;;10.35;100.00
7662;BME280;30314;48.184;11.510;2023-05-16T09:06:35;95551.22;;;10.37;100.00
7662;BME280;30314;48.184;11.510;2023-05-16T09:09:02;95550.66;;;10.40;100.00
7662;BME280;30314;48.184;11.510;2023-05-16T09:11:29;95555.34;;;10.43;100.00
7662;BME280;30314;48.184;11.510;2023-05-16T09:13:56;95547.13;;;10.45;100.00
7662;BME280;30314;48.184;11.510;2023-05-16T09:16:23;95542.84;;;10.49;100.00
7662;BME280;30314;48.184;11.510;2023-05-16T09:18:54;95543.41;;;10.60;100.00
7662;BME280;30314;48.184;11.510;2023-05-16T09:21:26;95535.09;;;10.67;100.00
7662;BME280;30314;48.184;11.510;2023-05-16T09:23:53;95543.22;;;10.70;100.00
7662;BME280;30314;48.184;11.510;2023-05-16T09:26:20;95549.47;;;10.75;100.00
7662;BME280;30314;48.184;11.510;2023-05-16T09:28:48;95546.34;;;11.00;100.00
7662;BME280;30314;48.184;11.510;2023-05-16T09:31:23;95547.06;;;10.92;100.00
7662;BME280;30314;48.184;11.510;2023-05-16T09:33:55;95547.25;;;10.82;100.00
7662;BME280;30314;48.184;11.510;2023-05-16T09:36:22;95549.50;;;10.89;100.00
7662;BME280;30314;48.184;11.510;2023-05-16T09:38:50;95549.19;;;10.90;100.00
7662;BME280;30314;48.184;11.510;2023-05-16T09:41:17;95549.50;;;10.89;100.00
7662;BME280;30314;48.184;11.510;2023-05-16T09:43:44;95545.84;;;10.98;100.00
7662;BME280;30314;48.184;11.510;2023-05-16T09:46:12;95537.72;;;11.09;100.00
7662;BME280;30314;48.184;11.510;2023-05-16T09:48:41;95542.91;;;11.14;100.00
7662;BME280;30314;48.184;11.510;2023-05-16T09:51:10;95547.72;;;11.12;100.00
7662;BME280;30314;48.184;11.510;2023-05-16T09:53:38;95530.69;;;11.04;100.00
7662;BME280;30314;48.184;11.510;2023-05-16T09:56:12;95543.41;;;11.16;100.00
7662;BME280;30314;48.184;11.510;2023-05-16T09:58:40;95537.63;;;11.14;100.00
7662;BME280;30314;48.184;11.510;2023-05-16T10:01:09;95542.91;;;11.14;100.00
7662;BME280;30314;48.184;11.510;2023-05-16T10:03:37;95551.34;;;11.16;100.00
7662;BME280;30314;48.184;11.510;2023-05-16T10:06:06;95547.94;;;11.16;100.00
7662;BME280;30314;48.184;11.510;2023-05-16T10:08:33;95537.94;;;11.12;100.00
7662;BME280;30314;48.184;11.510;2023-05-16T10:11:05;95544.84;;;11.08;100.00
7662;BME280;30314;48.184;11.510;2023-05-16T10:13:34;95553.09;;;11.07;100.00
7662;BME280;30314;48.184;11.510;2023-05-16T10:16:06;95553.19;;;11.02;100.00
7662;BME280;30314;48.184;11.510;2023-05-16T10:18:34;95544.78;;;10.99;100.00
7662;BME280;30314;48.184;11.510;2023-05-16T10:21:04;95547.91;;;11.02;100.00
7662;BME280;30314;48.184;11.510;2023-05-16T10:23:37;95559.47;;;11.06;100.00
7662;BME280;30314;48.184;11.510;2023-05-16T10:26:06;95559.25;;;11.02;100.00
7662;BME280;30314;48.184;11.510;2023-05-16T10:28:35;95565.53;;;10.92;100.00
7662;BME280;30314;48.184;11.510;2023-05-16T10:31:02;95565.94;;;10.85;100.00
7662;BME280;30314;48.184;11.510;2023-05-16T10:33:28;95579.44;;;10.84;100.00
7662;BME280;30314;48.184;11.510;2023-05-16T10:35:55;95571.63;;;10.79;100.00
7662;BME280;30314;48.184;11.510;2023-05-16T10:38:22;95576.31;;;10.82;100.00
7662;BME280;30314;48.184;11.510;2023-05-16T10:40:50;95574.91;;;10.84;100.00
7662;BME280;30314;48.184;11.510;2023-05-16T10:43:27;95579.63;;;10.74;100.00
7662;BME280;30314;48.184;11.510;2023-05-16T10:45:58;95580.00;;;10.67;100.00
7662;BME280;30314;48.184;11.510;2023-05-16T10:48:32;95579.03;;;10.63;100.00
7662;BME280;30314;48.184;11.510;2023-05-16T10:50:59;95574.25;;;10.79;100.00
7662;BME280;30314;48.184;11.510;2023-05-16T10:53:31;95572.78;;;10.72;100.00
7662;BME280;30314;48.184;11.510;2023-05-16T11:01:17;95576.69;;;10.75;100.00
7662;BME280;30314;48.184;11.510;2023-05-16T11:14:24;95561.03;;;10.65;100.00
7662;BME280;30314;48.184;11.510;2023-05-16T11:17:11;95568.56;;;10.71;100.00
7662;BME280;30314;48.184;11.510;2023-05-16T11:19:40;95562.88;;;10.64;100.00
7662;BME280;30314;48.184;11.510;2023-05-16T11:24:36;95562.69;;;10.61;100.00
7662;BME280;30314;48.184;11.510;2023-05-16T11:27:04;95569.53;;;10.62;100.00
7662;BME280;30314;48.184;11.510;2023-05-16T11:29:32;95549.56;;;10.55;100.00
7662;BME280;30314;48.184;11.510;2023-05-16T11:32:01;95573.38;;;10.69;100.00
7662;BME280;30314;48.184;11.510;2023-05-16T11:34:29;95567.59;;;10.67;100.00
7662;BME280;30314;48.184;11.510;2023-05-16T11:36:57;95562.59;;;10.66;100.00
7662;BME280;30314;48.184;11.510;2023-05-16T11:39:25;95567.09;;;10.65;100.00
7662;BME280;30314;48.184;11.510;2023-05-16T11:41:52;95561.22;;;10.68;100.00
7662;BME280;30314;48.184;11.510;2023-05-16T11:44:19;95557.31;;;10.80;100.00
7662;BME280;30314;48.184;11.510;2023-05-16T11:46:46;95554.09;;;10.83;100.00
7662;BME280;30314;48.184;11.510;2023-05-16T11:49:13;95554.09;;;10.83;100.00
7662;BME280;30314;48.184;11.510;2023-05-16T11:51:40;95563.16;;;11.05;100.00
7662;BME280;30314;48.184;11.510;2023-05-16T11:54:09;95559.53;;;11.00;100.00
7662;BME280;30314;48.184;11.510;2023-05-16T11:56:35;95552.22;;;11.11;100.00
7662;BME280;30314;48.184;11.510;2023-05-16T11:59:02;95555.53;;;11.31;100.00
7662;BME280;30314;48.184;11.510;2023-05-16T12:01:48;95551.28;;;11.44;100.00
7662;BME280;30314;48.184;11.510;2023-05-16T12:04:16;95532.47;;;11.46;100.00
7662;BME280;30314;48.184;11.510;2023-05-16T12:06:43;95542.59;;;11.66;100.00
7662;BME280;30314;48.184;11.510;2023-05-16T12:09:11;95545.78;;;11.77;100.00
7662;BME280;30314;48.184;11.510;2023-05-16T12:11:43;95540.31;;;11.74;100.00
7662;BME280;30314;48.184;11.510;2023-05-16T12:14:11;95538.19;;;11.84;100.00
7662;BME280;30314;48.184;11.510;2023-05-16T12:16:45;95541.44;;;11.81;100.00
7662;BME280;30314;48.184;11.510;2023-05-16T12:19:14;95539.59;;;11.82;100.00
7662;BME280;30314;48.184;11.510;2023-05-16T12:21:41;95544.09;;;11.81;100.00
7662;BME280;30314;48.184;11.510;2023-05-16T12:24:09;95534.34;;;11.91;100.00
7662;BME280;30314;48.184;11.510;2023-05-16T12:26:39;95541.88;;;11.75;100.00
7662;BME280;30314;48.184;11.510;2023-05-16T12:29:06;95535.34;;;11.72;100.00
7662;BME280;30314;48.184;11.510;2023-05-16T12:31:38;95537.97;;;11.72;100.00
7662;BME280;30314;48.184;11.510;2023-05-16T12:34:17;95526.88;;;11.70;100.00
7662;BME280;30314;48.184;11.510;2023-05-16T12:36:43;95528.63;;;11.75;100.00
7662;BME280;30314;48.184;11.510;2023-05-16T12:39:11;95544.28;;;11.85;100.00
7662;BME280;30314;48.184;11.510;2023-05-16T12:41:40;95541.22;;;11.92;100.00
7662;BME280;30314;48.184;11.510;2023-05-16T12:44:13;95540.03;;;11.98;100.00
7662;BME280;30314;48.184;11.510;2023-05-16T12:46:46;95533.78;;;12.03;100.00
7662;BME280;30314;48.184;11.510;2023-05-16T12:49:15;95535.00;;;12.19;100.00
7662;BME280;30314;48.184;11.510;2023-05-16T12:51:52;95523.31;;;12.20;100.00
7662;BME280;30314;48.184;11.510;2023-05-16T12:54:19;95526.00;;;12.29;100.00
7662;BME280;30314;48.184;11.510;2023-05-16T12:56:48;95514.31;;;12.30;100.00
7662;BME280;30314;48.184;11.510;2023-05-16T12:59:15;95524.47;;;12.37;100.00
7662;BME280;30314;48.184;11.510;2023-05-16T13:01:41;95519.50;;;12.44;100.00
7662;BME280;30314;48.184;11.510;2023-05-16T13:04:09;95525.81;;;12.57;100.00
7662;BME280;30314;48.184;11.510;2023-05-16T13:06:42;95514.41;;;12.48;100.00
7662;BME280;30314;48.184;11.510;2023-05-16T13:09:24;95519.06;;;12.51;100.00
7662;BME280;30314;48.184;11.510;2023-05-16T13:11:56;95533.13;;;12.60;100.00
7662;BME280;30314;48.184;11.510;2023-05-16T13:14:23;95532.81;;;12.53;100.00
7662;BME280;30314;48.184;11.510;2023-05-16T13:16:49;95542.44;;;12.49;100.00
7662;BME280;30314;48.184;11.510;2023-05-16T13:19:16;95553.47;;;12.42;100.00
7662;BME280;30314;48.184;11.510;2023-05-16T13:21:43;95550.03;;;12.33;100.00